This is the latest recevied weather packets stored in our database for station/object SQ3MKP-13. If no packets are shown the sender has not sent any weather packets the latest 10 day(s).
| Time | Temp. | Humidity | Pressure | Rain* | Wind** | Luminosity | Snow |
|---|---|---|---|---|---|---|---|
| 1787998920 | 19.44° C | 83% | 1003.6 hPa | - | - | 419 W/m² | - |
| 1787998620 | 18.89° C | 84% | 1003.6 hPa | - | - | 623 W/m² | - |
| 1787998319 | 18.33° C | 84% | 1003.7 hPa | - | - | 636 W/m² | - |
| 1787998018 | 18.33° C | 85% | 1003.7 hPa | - | - | 640 W/m² | - |
| 1787997717 | 17.78° C | 88% | 1003.7 hPa | - | - | 395 W/m² | - |
| 1787997416 | 17.78° C | 90% | 1003.7 hPa | - | - | 505 W/m² | - |
| 1787997115 | 17.22° C | 91% | 1003.6 hPa | - | - | 228 W/m² | - |
| 1787996814 | 17.22° C | 90% | 1003.6 hPa | - | - | 212 W/m² | - |
| 1787996514 | 17.22° C | 91% | 1003.6 hPa | - | - | 225 W/m² | - |
| 1787996212 | 16.67° C | 91% | 1003.6 hPa | - | - | 219 W/m² | - |
| 1787995912 | 17.22° C | 91% | 1003.6 hPa | - | - | 169 W/m² | - |
| 1787995611 | 17.22° C | 89% | 1003.6 hPa | - | - | 148 W/m² | - |
| 1787995309 | 18.33° C | 79% | 1003.6 hPa | - | - | 103 W/m² | - |
| 1787995008 | 18.89° C | 77% | 1003.5 hPa | - | - | 186 W/m² | - |
| 1787994707 | 18.89° C | 80% | 1003.4 hPa | - | - | 278 W/m² | - |
| 1787994406 | 18.89° C | 81% | 1003.2 hPa | - | - | 237 W/m² | - |
| 1787994105 | 19.44° C | 80% | 1003 hPa | - | - | 125 W/m² | - |
| 1787993805 | 19.44° C | 79% | 1003 hPa | - | - | 76 W/m² | - |
| 1787993504 | 19.44° C | 80% | 1003 hPa | - | - | 768 W/m² | - |
| 1787993203 | 19.44° C | 80% | 1002.9 hPa | - | - | 280 W/m² | - |
| 1787992902 | 20° C | 80% | 1002.9 hPa | - | - | 292 W/m² | - |
| 1787992601 | 19.44° C | 80% | 1002.9 hPa | - | - | 349 W/m² | - |
| 1787992300 | 19.44° C | 82% | 1002.8 hPa | - | - | 281 W/m² | - |
| 1787991999 | 18.89° C | 84% | 1002.8 hPa | - | - | 370 W/m² | - |
| 1787991699 | 18.89° C | 86% | 1002.7 hPa | - | - | 380 W/m² | - |
* Rain since midnight (hover to see other rain measurements)
** Current wind speed in m/s (hover to see current wind gust speed)